Weather observations for the past three days for
Winslow, Winslow Municipal Airport
Metric (Imperial)
Date Time (mst) Wind (kph) Vis. (km) Weather Sky Cond. Temperature (ºC) Relative Humidity Wind Chill (°C) Heat Index (°C) Pressure Precipitation (cm)
Air Dwpt 6 hour altimeter (cm) sea level (mb) 1 hr 3 hr 6 hr
Max. Min.
10 04:56 NW 13 16.09 Fair CLR 13.9 -6.7 23.3 11.7 24% 76.45 1012.7
10 03:56 NW 13 16.09 Fair CLR 14.4 -7.8 21% 76.4 1011.8
10 02:56 W 17 16.09 Fair CLR 16.1 -9.4 17% 76.38 1010.9
10 01:56 W 13 16.09 Fair CLR 16.7 -8.3 17% 76.33 1010.4
10 00:56 W 22 16.09 Fair CLR 17.8 -5 21% 76.3 1009.6
09 23:56 SW 17 16.09 Fair CLR 17.2 -5 22% 76.3 1009.5
09 22:56 W 7 16.09 Fair CLR 22.8 -3.9 29.4 22.8 17% 76.28 1008.9
09 21:56 Vrbl 7 16.09 Fair CLR 23.9 -4.4 15% 24 76.23 1008.2
09 20:56 N 15 16.09 Fair CLR 23.3 -5 15% 76.17 1008.0
09 19:56 W 11 16.09 Fair CLR 25 -5 13% 25 76.1 1006.7
09 18:56 W 28 G 41 16.09 Fair CLR 27.8 -5.6 11% 26 76.02 1006.2
09 17:56 NW 7 16.09 A Few Clouds FEW120 28.9 -6.1 10% 27 76 1007.2
09 16:56 N 7 16.09 A Few Clouds FEW100 28.9 -6.1 32.2 28.3 10% 27 76.02 1007.3
09 15:56 NW 17 16.09 Fair CLR 30 -7.2 8% 28 76.02 1006.7
09 14:56 NW 7 16.09 Fair CLR 30.6 -7.8 8% 29 76.07 1007.3
09 13:56 S 9 16.09 Fair CLR 30 -7.8 8% 28 76.12 1007.6
09 12:56 NW 19 G 33 16.09 Fair CLR 31.1 -7.2 8% 29 76.17 1007.9
09 11:56 NE 15 16.09 Fair CLR 30 -8.3 8% 28 76.23 1008.7
09 10:56 NE 11 16.09 Fair CLR 28.3 -6.7 28.3 7.8 10% 27 76.33 1009.9
09 09:56 NW 9 16.09 Fair CLR 26.7 -6.1 11% 26 76.35 1011.0
09 08:56 Vrbl 6 16.09 Fair CLR 23.9 -6.1 13% 24 76.35 1010.7
09 07:56 Vrbl 6 16.09 Fair CLR 22.2 -7.2 13% 76.38 1010.8
09 06:56 S 6 16.09 Fair CLR 17.2 -6.1 20% 76.35 1011.3
09 05:56 Calm 16.09 Fair CLR 8.9 -7.2 32% 76.33 1011.7
09 04:56 Calm 16.09 Fair CLR 10 -7.2 19.4 10 29% 76.3 1010.7
09 03:56 W 15 16.09 Fair CLR 12.2 -7.2 25% 76.28 1010.1
09 02:56 Calm 16.09 Fair CLR 11.7 -6.7 27% 76.25 1009.9
09 01:56 NW 6 16.09 Fair CLR 13.9 -5 27% 76.25 1009.9
09 00:56 NW 13 16.09 Fair CLR 16.7 -4.4 23% 76.23 1009.3
08 23:56 SW 20 16.09 Fair CLR 17.2 -3.9 24% 76.23 1009.1
08 22:56 SW 22 16.09 Fair CLR 19.4 -3.3 31.1 17.8 21% 76.2 1008.8
08 21:56 W 17 16.09 Fair CLR 17.8 -4.4 22% 76.17 1009.4
08 20:56 W 20 16.09 Fair CLR 22.2 -3.9 17% 76.15 1008.8
08 19:56 W 19 16.09 Fair CLR 24.4 -4.4 14% 24 76.1 1008.4
08 18:56 W 9 16.09 Fair CLR 26.1 -5.6 12% 25 76.05 1007.9
08 17:56 NW 9 16.09 Fair CLR 28.9 -7.2 9% 27 76.02 1008.0
08 16:56 Vrbl 11 16.09 Fair CLR 30.6 -6.7 31.7 25 8% 29 76.05 1007.9
08 15:56 E 13 16.09 Fair CLR 30.6 -6.7 8% 29 76.07 1008.2
08 14:56 Calm 16.09 Fair CLR 30 -6.1 9% 28 76.12 1008.6
08 13:56 Calm 16.09 Fair CLR 28.3 -6.1 10% 27 76.17 1009.7
08 12:56 Calm 16.09 Fair CLR 27.8 -5 11% 26 76.25 1010.2
08 11:56 Calm 16.09 Fair CLR 27.2 -7.2 10% 26 76.3 1011.1
08 10:56 Vrbl 6 16.09 Fair CLR 25.6 -8.3 26.1 5.6 10% 25 76.35 1012.3
08 09:56 E 6 16.09 Fair CLR 22.2 -7.8 13% 76.4 1013.4
08 08:56 Calm 16.09 Fair CLR 18.3 -7.8 16% 76.4 1014.1
08 07:56 SE 9 16.09 Fair CLR 14.4 -8.9 19% 76.43 1014.2
08 06:56 SE 11 16.09 Fair CLR 10 -10.6 22% 9 76.4 1013.7
08 05:56 SE 11 16.09 Fair CLR 6.7 -10.6 28% 5 76.38 1013.5
08 04:56 SE 11 16.09 Fair CLR 6.1 -13.9 12.8 5 22% 4 76.35 1013.1
08 03:56 S 6 16.09 Fair CLR 6.1 -13.3 24% 76.33 1013.0
08 02:56 Calm 16.09 Fair CLR 8.3 -13.3 20% 76.33 1012.9
08 01:56 SE 9 16.09 Fair CLR 9.4 -13.3 19% 8 76.3 1012.3
08 00:56 Vrbl 6 16.09 Fair CLR 12.2 -13.3 16% 76.33 1012.5
07 23:56 SW 11 16.09 Fair CLR 11.7 -13.9 15% 76.33 1012.7
07 22:56 SW 13 16.09 Fair CLR 11.1 -14.4 25 10.6 15% 76.33 1013.0
07 21:56 SW 15 16.09 Fair CLR 10.6 -14.4 16% 76.35 1013.7
07 20:56 W 9 16.09 Fair CLR 11.7 -15 14% 76.33 1013.6
07 19:56 Calm 16.09 Fair CLR 15.6 -14.4 11% 76.28 1012.8
07 18:56 NW 9 16.09 Fair CLR 22.8 -15.6 6% 76.25 1011.6
07 17:56 W 11 16.09 Fair CLR 23.9 -16.1 6% 23 76.25 1012.0
07 16:56 NW 13 G 30 16.09 Fair CLR 25 -15 25 18.3 6% 24 76.25 1011.7
07 15:56 N 13 16.09 Fair CLR 24.4 -13.3 7% 24 76.28 1012.2
07 14:56 Calm 16.09 Fair CLR 22.8 -12.2 9% 76.33 1012.9
07 13:56 Vrbl 6 16.09 Fair CLR 22.8 -11.1 9% 76.4 1013.5
07 12:56 NE 9 16.09 Fair CLR 21.1 -10.6 11% 76.48 1014.6
07 11:56 W 6 16.09 Fair CLR 20 -10 12% 76.53 1015.4
07 10:56 Calm 16.09 Fair CLR 18.9 -8.9 18.9 3.3 14% 76.61 1016.4
07 09:56 Vrbl 6 16.09 Fair CLR 17.2 -8.3 17% 76.66 1016.8
07 08:56 Calm 16.09 Fair CLR 15 -6.1 23% 76.68 1017.4
07 07:56 E 6 16.09 Fair CLR 12.2 -6.1 28% 76.71 1018.2
07 06:56 Calm 16.09 Fair CLR 8.3 -6.1 36% 76.71 1018.5
07 05:56 Calm 16.09 Fair CLR 4.4 -7.2 43% 76.68 1018.3
Date Time (mst) Wind (kph) Vis. (km) Weather Sky Cond. Air Dwpt Max. Min. Relative Humidity Wind Chill (°C) Heat Index (°C) altimeter (cm) sea level (mb) 1 hr 3 hr 6 hr
6 hour
Temperature (ºC) Pressure Precipitation (cm)